Time;durP1;ratioP1;P1;durP2;ratioP2;P2;SDS_P1;SDS_P2;PMS_P1;PMS_P2;Temp;Humidity;BMP_temperature;BMP_pressure;BME280_temperature;BME280_humidity;BME280_pressure;Samples;Min_cycle;Max_cycle;Signal;HPM_P1;HPM_P2
2022/01/16 00:04:07;;;;;;;74.93;30.83;;;;;;;;;;5071314;28;20048;-64
2022/01/16 00:06:33;;;;;;;65.25;29.90;;;;;;;;;;5089084;28;20051;-64
2022/01/16 00:08:59;;;;;;;71.10;30.85;;;;;;;;;;5089591;28;20048;-65
2022/01/16 00:11:27;;;;;;;73.28;31.35;;;;;;;;;;5088535;28;20043;-65
2022/01/16 00:13:53;;;;;;;67.25;30.60;;;;;;;;;;5089236;28;20076;-64
2022/01/16 00:16:19;;;;;;;63.33;28.10;;;;;;;;;;5089259;28;20118;-64
2022/01/16 00:19:03;;;;;;;60.78;27.58;;;;;;;;;;5071209;28;20048;-65
2022/01/16 00:21:31;;;;;;;68.15;31.58;;;;;;;;;;5088905;28;20101;-63
2022/01/16 00:23:58;;;;;;;67.88;29.65;;;;;;;;;;5057431;28;20052;-65
2022/01/16 00:26:24;;;;;;;64.45;31.52;;;;;;;;;;5093146;28;20514;-64
2022/01/16 00:28:51;;;;;;;65.13;29.77;;;;;;;;;;5092925;28;20133;-64
2022/01/16 00:31:18;;;;;;;74.90;36.45;;;;;;;;;;5092576;28;20086;-65
2022/01/16 00:33:45;;;;;;;66.90;31.20;;;;;;;;;;5092825;28;20492;-63
2022/01/16 00:36:12;;;;;;;66.60;30.90;;;;;;;;;;5092765;28;20048;-64
2022/01/16 00:38:45;;;;;;;65.40;28.40;;;;;;;;;;5074975;28;20052;-65
2022/01/16 00:41:11;;;;;;;65.60;29.60;;;;;;;;;;5091944;28;20178;-65
2022/01/16 00:43:37;;;;;;;67.30;29.65;;;;;;;;;;5074733;28;20048;-64
2022/01/16 00:46:03;;;;;;;65.70;30.02;;;;;;;;;;5093312;28;20492;-64
2022/01/16 00:48:30;;;;;;;71.15;32.38;;;;;;;;;;5074581;28;20485;-64
2022/01/16 00:50:56;;;;;;;75.22;31.90;;;;;;;;;;5092694;28;20040;-63
2022/01/16 00:53:22;;;;;;;69.85;30.58;;;;;;;;;;5092451;28;20040;-64
2022/01/16 00:55:48;;;;;;;73.20;32.92;;;;;;;;;;5092917;28;20032;-65
2022/01/16 00:58:14;;;;;;;67.20;31.55;;;;;;;;;;5092498;28;20047;-63
2022/01/16 01:00:40;;;;;;;75.03;33.47;;;;;;;;;;5092700;28;20051;-64
2022/01/16 01:03:06;;;;;;;77.40;33.97;;;;;;;;;;5092442;28;20118;-65
2022/01/16 01:05:33;;;;;;;69.25;30.48;;;;;;;;;;5092686;28;20492;-65
2022/01/16 01:08:00;;;;;;;69.50;30.63;;;;;;;;;;5092294;28;20046;-64
2022/01/16 01:10:31;;;;;;;75.15;31.27;;;;;;;;;;5092071;28;20404;-65
2022/01/16 01:13:08;;;;;;;74.25;31.63;;;;;;;;;;5056806;28;20039;-65
2022/01/16 01:15:42;;;;;;;85.20;31.83;;;;;;;;;;5092937;28;20054;-64
2022/01/16 01:18:08;;;;;;;;;;;;;;;;;;5093470;28;20040;-65
2022/01/16 01:20:34;;;;;;;79.28;30.52;;;;;;;;;;5092448;28;19927;-64
2022/01/16 01:23:00;;;;;;;77.38;31.23;;;;;;;;;;5091687;28;20481;-63
2022/01/16 01:25:26;;;;;;;73.32;29.98;;;;;;;;;;5073981;28;20123;-65
2022/01/16 01:27:53;;;;;;;67.90;29.20;;;;;;;;;;5092256;28;20071;-64
2022/01/16 01:30:20;;;;;;;73.43;31.17;;;;;;;;;;5092486;28;20040;-66
2022/01/16 01:32:47;;;;;;;80.50;32.90;;;;;;;;;;5074042;28;20511;-65
2022/01/16 01:35:14;;;;;;;75.15;32.60;;;;;;;;;;5091777;28;20040;-64
2022/01/16 01:37:41;;;;;;;69.85;31.13;;;;;;;;;;5092377;28;20032;-65
2022/01/16 01:40:08;;;;;;;73.43;31.05;;;;;;;;;;5074186;28;20173;-64
2022/01/16 01:42:42;;;;;;;67.75;30.45;;;;;;;;;;5073826;28;20462;-66
2022/01/16 01:51:03;;;;;;;78.82;32.92;;;;;;;;;;5091738;28;20036;-64
2022/01/16 01:51:03;;;;;;;72.32;30.95;;;;;;;;;;5091968;28;20040;-64
2022/01/16 01:53:29;;;;;;;78.28;32.10;;;;;;;;;;5092247;28;20096;-66
2022/01/16 01:55:55;;;;;;;69.07;31.48;;;;;;;;;;5092051;28;20119;-65
2022/01/16 01:58:21;;;;;;;73.95;30.75;;;;;;;;;;5073950;28;20496;-65
2022/01/16 02:00:48;;;;;;;69.47;30.77;;;;;;;;;;5092077;28;20082;-64
2022/01/16 02:03:21;;;;;;;73.63;29.90;;;;;;;;;;5091182;28;20043;-64
2022/01/16 02:05:47;;;;;;;76.82;31.98;;;;;;;;;;5091907;28;20044;-64
2022/01/16 02:08:13;;;;;;;82.07;31.85;;;;;;;;;;5091943;28;20044;-64
2022/01/16 02:10:41;;;;;;;76.32;29.98;;;;;;;;;;5091902;28;20075;-65
2022/01/16 02:13:10;;;;;;;85.35;32.60;;;;;;;;;;5091410;28;20035;-64
2022/01/16 02:31:38;;;;;;;87.85;34.03;;;;;;;;;;5072641;28;20044;-64
2022/01/16 02:36:51;;;;;;;86.68;33.00;;;;;;;;;;5091495;28;20040;-64
2022/01/16 02:39:17;;;;;;;91.82;34.08;;;;;;;;;;5073486;28;20272;-64
2022/01/16 02:41:44;;;;;;;97.00;35.35;;;;;;;;;;5090813;28;20119;-64
2022/01/16 02:44:29;;;;;;;96.55;35.75;;;;;;;;;;5056697;28;20126;-64
2022/01/16 02:46:56;;;;;;;99.53;34.97;;;;;;;;;;5091405;28;20118;-65
2022/01/16 02:49:23;;;;;;;102.85;36.60;;;;;;;;;;5073415;28;20044;-64
2022/01/16 02:51:51;;;;;;;98.07;36.58;;;;;;;;;;5072713;28;20385;-64
2022/01/16 02:54:17;;;;;;;103.72;36.63;;;;;;;;;;5091092;28;20488;-64
2022/01/16 02:56:45;;;;;;;110.30;35.42;;;;;;;;;;5073064;28;20036;-63
2022/01/16 02:59:11;;;;;;;104.07;36.13;;;;;;;;;;5072844;28;20055;-64
2022/01/16 03:01:37;;;;;;;104.15;37.90;;;;;;;;;;5090493;28;20036;-62
2022/01/16 03:04:03;;;;;;;95.25;34.03;;;;;;;;;;5091102;28;20050;-63
2022/01/16 03:06:29;;;;;;;109.38;36.97;;;;;;;;;;5090967;28;20040;-64
2022/01/16 03:08:56;;;;;;;92.75;35.17;;;;;;;;;;5090795;28;20507;-64
2022/01/16 03:11:34;;;;;;;107.00;36.95;;;;;;;;;;5089670;28;20036;-63
2022/01/16 03:14:01;;;;;;;121.88;39.03;;;;;;;;;;5090499;28;20044;-64
2022/01/16 03:16:27;;;;;;;121.63;38.83;;;;;;;;;;5090523;28;20040;-64
2022/01/16 03:22:02;;;;;;;118.45;37.92;;;;;;;;;;5090179;28;20043;-66
2022/01/16 03:24:35;;;;;;;113.70;38.35;;;;;;;;;;5090673;28;20043;-64
2022/01/16 03:27:03;;;;;;;113.43;38.20;;;;;;;;;;5072668;28;20050;-65
2022/01/16 03:29:29;;;;;;;125.15;40.50;;;;;;;;;;5090502;28;20118;-64
2022/01/16 03:31:56;;;;;;;118.28;40.40;;;;;;;;;;5090398;28;20036;-64
2022/01/16 03:34:22;;;;;;;115.68;39.60;;;;;;;;;;5090907;28;20061;-64
2022/01/16 03:36:48;;;;;;;134.80;43.75;;;;;;;;;;5090226;28;20127;-64
2022/01/16 03:39:15;;;;;;;121.45;39.63;;;;;;;;;;5090664;28;20449;-64
2022/01/16 03:41:41;;;;;;;116.55;40.72;;;;;;;;;;5071895;28;20055;-65
2022/01/16 03:44:08;;;;;;;116.07;40.55;;;;;;;;;;5090379;28;20051;-65
2022/01/16 03:46:39;;;;;;;116.15;41.10;;;;;;;;;;5090284;28;20051;-65
2022/01/16 03:49:10;;;;;;;127.90;44.00;;;;;;;;;;5070983;28;20050;-64
2022/01/16 03:51:37;;;;;;;111.63;38.08;;;;;;;;;;5090415;28;20043;-63
2022/01/16 03:54:11;;;;;;;111.15;40.65;;;;;;;;;;5091210;28;20032;-65
2022/01/16 03:56:37;;;;;;;122.07;40.85;;;;;;;;;;5090649;28;20043;-62
2022/01/16 03:59:09;;;;;;;113.63;41.88;;;;;;;;;;5075925;28;20127;-64
2022/01/16 04:01:35;;;;;;;119.35;41.78;;;;;;;;;;5093717;28;20036;-65
2022/01/16 04:04:01;;;;;;;115.35;41.25;;;;;;;;;;5094212;28;20408;-65
2022/01/16 04:06:27;;;;;;;119.38;40.97;;;;;;;;;;5094699;28;20063;-64
2022/01/16 04:08:54;;;;;;;108.22;40.55;;;;;;;;;;5094367;28;20074;-65
2022/01/16 04:11:21;;;;;;;102.13;38.33;;;;;;;;;;5092804;28;20067;-65
2022/01/16 04:13:52;;;;;;;107.25;40.58;;;;;;;;;;5094522;28;20051;-64
2022/01/16 04:16:22;;;;;;;119.82;41.60;;;;;;;;;;5094506;28;20059;-63
2022/01/16 04:18:50;;;;;;;111.25;39.70;;;;;;;;;;5094790;28;20140;-64
2022/01/16 04:21:20;;;;;;;114.43;40.30;;;;;;;;;;5076149;28;20504;-63
2022/01/16 04:23:47;;;;;;;106.28;39.28;;;;;;;;;;5094269;28;20043;-63
2022/01/16 04:26:13;;;;;;;108.90;38.90;;;;;;;;;;5094292;28;20067;-63
2022/01/16 04:28:46;;;;;;;109.32;39.35;;;;;;;;;;5094249;28;20040;-65
2022/01/16 04:31:19;;;;;;;123.15;43.33;;;;;;;;;;5093506;28;20048;-64
2022/01/16 04:33:45;;;;;;;107.03;39.67;;;;;;;;;;5094127;28;20504;-64
2022/01/16 04:36:12;;;;;;;118.03;42.17;;;;;;;;;;5093982;28;20047;-63
2022/01/16 04:38:44;;;;;;;105.47;39.63;;;;;;;;;;5093740;28;20152;-64
2022/01/16 04:43:55;;;;;;;113.72;41.53;;;;;;;;;;5094457;28;20173;-64
2022/01/16 04:46:21;;;;;;;125.10;40.75;;;;;;;;;;5093991;28;20051;-65
2022/01/16 04:48:48;;;;;;;115.25;38.45;;;;;;;;;;5093552;28;20395;-65
2022/01/16 04:51:14;;;;;;;101.63;40.22;;;;;;;;;;5075004;28;20040;-66
2022/01/16 04:53:40;;;;;;;110.63;39.90;;;;;;;;;;5093287;28;20036;-66
2022/01/16 04:56:07;;;;;;;114.55;39.53;;;;;;;;;;5093252;28;20430;-65
2022/01/16 04:58:33;;;;;;;107.47;39.10;;;;;;;;;;5093709;28;20032;-66
2022/01/16 05:00:59;;;;;;;108.47;40.53;;;;;;;;;;5092834;28;20044;-64
2022/01/16 05:03:26;;;;;;;101.05;40.20;;;;;;;;;;5074673;28;20098;-65
2022/01/16 05:05:53;;;;;;;110.25;41.58;;;;;;;;;;5092982;28;20036;-65
2022/01/16 05:08:19;;;;;;;104.07;38.85;;;;;;;;;;5057728;28;20044;-65
2022/01/16 05:10:45;;;;;;;106.60;39.33;;;;;;;;;;5073550;28;20086;-63
2022/01/16 05:18:35;;;;;;;97.80;39.95;;;;;;;;;;5092915;28;20044;-66
2022/01/16 05:21:01;;;;;;;109.65;42.03;;;;;;;;;;5092096;28;20560;-64
2022/01/16 05:23:27;;;;;;;104.00;40.47;;;;;;;;;;5092854;28;20124;-66
2022/01/16 05:25:54;;;;;;;106.38;41.22;;;;;;;;;;5092988;28;20135;-66
2022/01/16 05:28:20;;;;;;;101.88;40.63;;;;;;;;;;5092844;28;20524;-65
2022/01/16 05:30:46;;;;;;;108.18;42.55;;;;;;;;;;5092680;28;20074;-66
2022/01/16 05:33:12;;;;;;;101.68;40.80;;;;;;;;;;5091921;28;20449;-65
2022/01/16 05:35:38;;;;;;;98.80;39.38;;;;;;;;;;5092258;28;20036;-64
2022/01/16 05:38:04;;;;;;;99.65;40.40;;;;;;;;;;5092364;28;20447;-65
2022/01/16 05:40:33;;;;;;;105.05;39.78;;;;;;;;;;5092536;28;20073;-65
2022/01/16 05:42:59;;;;;;;107.95;43.15;;;;;;;;;;5091706;28;20608;-65
2022/01/16 05:45:26;;;;;;;104.97;41.50;;;;;;;;;;5092315;28;20496;-65
2022/01/16 05:47:52;;;;;;;100.93;40.15;;;;;;;;;;5092369;28;20036;-65
2022/01/16 05:50:18;;;;;;;112.05;42.45;;;;;;;;;;5074009;28;20055;-66
2022/01/16 05:52:47;;;;;;;104.47;41.85;;;;;;;;;;5091958;28;20039;-65
2022/01/16 05:55:13;;;;;;;110.63;41.75;;;;;;;;;;5092074;28;20496;-65
2022/01/16 05:57:39;;;;;;;103.28;41.90;;;;;;;;;;5057477;28;20144;-63
2022/01/16 06:00:06;;;;;;;127.85;50.08;;;;;;;;;;5091937;28;20079;-63
2022/01/16 06:02:32;;;;;;;113.25;43.60;;;;;;;;;;5091433;28;20032;-65
2022/01/16 06:04:58;;;;;;;108.65;42.55;;;;;;;;;;5073534;28;20036;-65
2022/01/16 06:07:24;;;;;;;116.63;43.50;;;;;;;;;;5074003;28;20032;-65
2022/01/16 06:09:52;;;;;;;106.30;42.42;;;;;;;;;;5056795;28;20071;-65
2022/01/16 06:12:21;;;;;;;114.45;44.30;;;;;;;;;;5083629;28;20036;-64
2022/01/16 06:14:47;;;;;;;110.43;42.40;;;;;;;;;;5071837;28;20032;-65
2022/01/16 06:17:13;;;;;;;119.68;44.50;;;;;;;;;;5045340;28;20040;-64
2022/01/16 06:19:39;;;;;;;118.53;44.20;;;;;;;;;;5091717;28;20043;-62
2022/01/16 06:22:05;;;;;;;107.20;39.85;;;;;;;;;;5072613;28;20059;-63
2022/01/16 06:24:31;;;;;;;109.00;41.63;;;;;;;;;;5091761;28;20101;-63
2022/01/16 06:26:57;;;;;;;125.68;46.95;;;;;;;;;;5073528;28;20048;-63
2022/01/16 06:29:23;;;;;;;128.13;48.08;;;;;;;;;;5091721;28;20579;-66
2022/01/16 06:31:49;;;;;;;118.28;45.13;;;;;;;;;;5090914;28;20036;-64
2022/01/16 06:34:15;;;;;;;128.80;48.42;;;;;;;;;;5091801;28;20032;-65
2022/01/16 06:36:41;;;;;;;125.50;48.72;;;;;;;;;;5091732;28;20350;-65
2022/01/16 06:39:09;;;;;;;137.80;52.85;;;;;;;;;;5091703;28;20044;-64
2022/01/16 06:41:35;;;;;;;119.88;45.58;;;;;;;;;;5091001;28;20040;-65
2022/01/16 06:44:01;;;;;;;118.07;42.78;;;;;;;;;;5091346;28;20047;-64
2022/01/16 06:46:28;;;;;;;121.38;47.15;;;;;;;;;;5091464;28;20391;-63
2022/01/16 06:48:54;;;;;;;119.82;46.30;;;;;;;;;;5091320;28;20044;-63
2022/01/16 06:51:21;;;;;;;115.90;43.63;;;;;;;;;;5090588;28;20046;-63
2022/01/16 06:53:47;;;;;;;123.20;43.50;;;;;;;;;;5091122;28;20040;-64
2022/01/16 06:56:14;;;;;;;112.07;40.67;;;;;;;;;;5091074;28;20040;-64
2022/01/16 06:58:40;;;;;;;123.15;51.03;;;;;;;;;;5090925;28;20050;-65
2022/01/16 07:01:06;;;;;;;116.57;42.25;;;;;;;;;;5090298;28;20436;-64
2022/01/16 07:03:32;;;;;;;120.13;43.63;;;;;;;;;;5091201;28;20389;-64
2022/01/16 07:05:59;;;;;;;114.57;43.28;;;;;;;;;;5090721;28;20316;-64
2022/01/16 07:08:26;;;;;;;120.35;43.83;;;;;;;;;;5090796;28;20417;-64
2022/01/16 07:10:53;;;;;;;114.75;42.53;;;;;;;;;;5090502;28;20554;-64
2022/01/16 07:13:21;;;;;;;109.57;39.53;;;;;;;;;;5072624;28;20165;-64
2022/01/16 07:15:47;;;;;;;114.68;42.28;;;;;;;;;;5072835;28;20047;-64
2022/01/16 07:18:13;;;;;;;120.28;42.53;;;;;;;;;;5072590;28;20413;-63
2022/01/16 07:20:48;;;;;;;112.90;43.53;;;;;;;;;;5090786;28;20036;-64
2022/01/16 07:23:14;;;;;;;110.22;42.45;;;;;;;;;;5090126;28;20081;-64
2022/01/16 07:25:44;;;;;;;123.82;45.55;;;;;;;;;;5083910;28;20119;-65
2022/01/16 07:28:10;;;;;;;108.22;40.80;;;;;;;;;;5090086;28;20037;-64
2022/01/16 07:30:37;;;;;;;118.30;46.47;;;;;;;;;;5090745;28;20036;-65
2022/01/16 07:33:03;;;;;;;115.50;45.53;;;;;;;;;;5089342;28;20119;-65
2022/01/16 07:35:30;;;;;;;114.18;42.70;;;;;;;;;;5072318;28;20032;-64
2022/01/16 07:37:56;;;;;;;115.30;43.28;;;;;;;;;;5085715;28;20034;-63
2022/01/16 07:40:22;;;;;;;103.28;43.03;;;;;;;;;;5060254;28;20148;-64
2022/01/16 07:42:52;;;;;;;116.15;45.42;;;;;;;;;;5087707;28;20043;-64
2022/01/16 07:45:18;;;;;;;106.47;42.90;;;;;;;;;;5079295;28;20126;-64
2022/01/16 07:47:44;;;;;;;104.05;41.75;;;;;;;;;;5083020;28;20036;-66
2022/01/16 07:50:14;;;;;;;101.90;41.58;;;;;;;;;;5088897;28;20047;-64
2022/01/16 07:52:41;;;;;;;109.93;40.13;;;;;;;;;;5089411;28;20036;-64
2022/01/16 07:55:07;;;;;;;111.45;42.03;;;;;;;;;;5055544;28;20504;-64
2022/01/16 07:57:33;;;;;;;102.78;41.45;;;;;;;;;;5061206;28;20317;-64
2022/01/16 07:59:59;;;;;;;114.57;42.70;;;;;;;;;;5060729;28;20405;-64
2022/01/16 08:02:25;;;;;;;95.05;36.55;;;;;;;;;;5067651;28;20050;-63
2022/01/16 08:04:51;;;;;;;102.05;39.70;;;;;;;;;;5089466;28;20552;-64
2022/01/16 08:07:17;;;;;;;103.60;41.30;;;;;;;;;;5085423;28;20405;-64
2022/01/16 08:09:43;;;;;;;104.82;38.63;;;;;;;;;;5088495;28;20040;-64
2022/01/16 08:12:11;;;;;;;100.13;39.17;;;;;;;;;;5052059;28;20032;-65
2022/01/16 08:14:37;;;;;;;93.22;34.25;;;;;;;;;;5080985;28;20072;-65
2022/01/16 08:17:06;;;;;;;109.35;41.97;;;;;;;;;;5060992;28;20037;-66
2022/01/16 08:19:35;;;;;;;101.85;42.20;;;;;;;;;;5089549;28;20193;-64
2022/01/16 08:22:01;;;;;;;112.22;42.30;;;;;;;;;;5070404;28;20044;-66
2022/01/16 08:24:34;;;;;;;107.07;43.53;;;;;;;;;;5085944;28;20043;-65
2022/01/16 08:27:00;;;;;;;94.60;42.28;;;;;;;;;;5087013;28;20036;-66
2022/01/16 08:29:26;;;;;;;104.43;41.67;;;;;;;;;;5089228;28;20048;-66
2022/01/16 08:31:52;;;;;;;111.28;43.08;;;;;;;;;;5088539;28;20036;-66
2022/01/16 08:34:18;;;;;;;104.97;43.47;;;;;;;;;;5088965;28;20497;-66
2022/01/16 08:36:49;;;;;;;115.25;45.03;;;;;;;;;;5078522;28;20438;-66
2022/01/16 08:39:15;;;;;;;97.93;40.67;;;;;;;;;;5061832;28;20507;-65
2022/01/16 08:41:42;;;;;;;113.53;42.22;;;;;;;;;;5088506;28;20123;-64
2022/01/16 08:44:14;;;;;;;106.45;46.40;;;;;;;;;;5080998;28;20388;-66
2022/01/16 08:46:44;;;;;;;108.20;45.20;;;;;;;;;;5081892;28;20043;-65
2022/01/16 08:49:10;;;;;;;103.00;46.22;;;;;;;;;;5091898;28;20040;-64
2022/01/16 08:51:36;;;;;;;105.88;46.63;;;;;;;;;;5091866;28;20422;-64
2022/01/16 08:54:05;;;;;;;103.18;44.53;;;;;;;;;;5089237;28;20070;-64
2022/01/16 08:56:31;;;;;;;99.47;42.25;;;;;;;;;;5090943;28;20035;-65
2022/01/16 08:58:57;;;;;;;96.60;41.88;;;;;;;;;;5066792;28;20047;-66
2022/01/16 09:01:23;;;;;;;97.70;42.17;;;;;;;;;;5092009;28;20058;-65
2022/01/16 09:03:52;;;;;;;94.32;43.40;;;;;;;;;;5092165;28;20084;-65
2022/01/16 09:06:19;;;;;;;91.30;40.28;;;;;;;;;;5091449;28;20040;-64
2022/01/16 09:08:45;;;;;;;100.70;43.17;;;;;;;;;;5063617;28;20045;-65
2022/01/16 09:11:14;;;;;;;96.72;43.65;;;;;;;;;;5071812;28;20659;-65
2022/01/16 09:13:41;;;;;;;102.25;46.70;;;;;;;;;;5073898;28;20489;-65
2022/01/16 09:16:07;;;;;;;104.07;47.00;;;;;;;;;;5091461;28;20106;-66
2022/01/16 09:18:33;;;;;;;113.32;53.28;;;;;;;;;;5091249;28;20123;-64
2022/01/16 09:21:01;;;;;;;98.88;45.47;;;;;;;;;;5056505;28;20388;-65
2022/01/16 09:23:27;;;;;;;97.13;44.40;;;;;;;;;;5073360;28;20043;-62
2022/01/16 09:26:02;;;;;;;91.40;41.58;;;;;;;;;;5091555;28;20392;-62
2022/01/16 09:28:28;;;;;;;88.50;40.22;;;;;;;;;;5091785;28;20058;-64
2022/01/16 09:30:54;;;;;;;94.15;42.15;;;;;;;;;;5091649;28;20036;-64
2022/01/16 09:33:20;;;;;;;89.28;41.65;;;;;;;;;;5090589;28;20040;-64
2022/01/16 09:35:46;;;;;;;82.20;38.83;;;;;;;;;;5091304;28;20032;-64
2022/01/16 09:38:22;;;;;;;87.10;40.08;;;;;;;;;;5091435;28;20032;-62
2022/01/16 09:40:49;;;;;;;94.68;45.10;;;;;;;;;;5087793;28;20046;-63
2022/01/16 09:43:26;;;;;;;82.57;38.72;;;;;;;;;;5090212;28;20036;-64
2022/01/16 09:45:53;;;;;;;87.03;41.88;;;;;;;;;;5087273;28;20040;-63
2022/01/16 09:48:20;;;;;;;87.20;40.33;;;;;;;;;;5089782;28;20122;-64
2022/01/16 09:50:51;;;;;;;84.80;39.67;;;;;;;;;;5091297;28;20043;-63
2022/01/16 09:53:17;;;;;;;76.88;37.17;;;;;;;;;;5089614;28;20394;-64
2022/01/16 09:55:44;;;;;;;83.43;38.88;;;;;;;;;;5079087;28;20055;-64
2022/01/16 09:58:10;;;;;;;78.32;40.25;;;;;;;;;;5073398;28;20036;-63
2022/01/16 10:00:36;;;;;;;75.82;38.60;;;;;;;;;;5076460;28;20089;-64
2022/01/16 10:03:11;;;;;;;79.05;38.00;;;;;;;;;;5076429;28;20040;-63
2022/01/16 10:05:39;;;;;;;81.28;41.75;;;;;;;;;;5056055;28;20503;-65
2022/01/16 10:08:09;;;;;;;88.15;45.63;;;;;;;;;;5083489;28;20043;-65
2022/01/16 10:10:38;;;;;;;79.25;39.72;;;;;;;;;;5079311;28;20036;-64
2022/01/16 10:13:20;;;;;;;75.13;42.72;;;;;;;;;;5073795;28;20366;-63
2022/01/16 10:15:52;;;;;;;74.85;41.33;;;;;;;;;;5078891;28;20432;-63
2022/01/16 10:18:32;;;;;;;71.97;41.00;;;;;;;;;;5078101;28;20117;-64
2022/01/16 10:20:58;;;;;;;68.95;38.15;;;;;;;;;;5075049;28;20405;-65
2022/01/16 10:23:28;;;;;;;70.70;36.72;;;;;;;;;;5058811;28;20044;-63
2022/01/16 10:25:59;;;;;;;75.50;37.30;;;;;;;;;;5081595;28;20073;-62
2022/01/16 10:28:28;;;;;;;75.22;36.63;;;;;;;;;;5058415;28;20459;-64
2022/01/16 10:30:59;;;;;;;63.00;35.72;;;;;;;;;;5088192;28;20111;-63
2022/01/16 10:33:26;;;;;;;59.33;31.17;;;;;;;;;;5090493;28;20040;-64
2022/01/16 10:35:53;;;;;;;68.28;35.42;;;;;;;;;;5072737;28;20512;-64
2022/01/16 10:38:29;;;;;;;68.32;38.15;;;;;;;;;;5091553;28;20036;-64
2022/01/16 10:40:56;;;;;;;61.38;33.00;;;;;;;;;;5091075;28;20050;-65
2022/01/16 10:43:39;;;;;;;67.03;35.40;;;;;;;;;;5060969;28;20028;-65
2022/01/16 10:46:08;;;;;;;60.95;33.00;;;;;;;;;;5071044;28;20486;-66
2022/01/16 10:48:34;;;;;;;63.30;34.55;;;;;;;;;;5077967;28;20050;-64
2022/01/16 10:51:03;;;;;;;57.53;34.58;;;;;;;;;;5088883;28;20032;-66
2022/01/16 10:53:31;;;;;;;55.95;31.55;;;;;;;;;;5085352;28;20036;-66
2022/01/16 10:55:58;;;;;;;60.90;31.98;;;;;;;;;;5091164;28;20035;-67
2022/01/16 10:58:24;;;;;;;62.70;33.40;;;;;;;;;;5087699;28;20028;-65
2022/01/16 11:01:03;;;;;;;56.17;31.90;;;;;;;;;;5063611;28;20039;-65
2022/01/16 11:03:37;;;;;;;80.13;40.88;;;;;;;;;;5079259;28;20072;-65
2022/01/16 11:06:03;;;;;;;71.43;37.25;;;;;;;;;;5081651;28;20039;-65
2022/01/16 11:10:59;;;;;;;60.88;35.17;;;;;;;;;;5067393;28;20051;-64
2022/01/16 11:13:29;;;;;;;68.50;39.65;;;;;;;;;;5069812;28;20150;-65
2022/01/16 11:15:56;;;;;;;55.63;31.77;;;;;;;;;;5087666;28;20042;-64
2022/01/16 11:18:23;;;;;;;56.25;31.33;;;;;;;;;;5052107;28;20135;-66
2022/01/16 11:21:03;;;;;;;52.58;31.10;;;;;;;;;;5054731;28;20508;-63
2022/01/16 11:23:49;;;;;;;53.17;31.23;;;;;;;;;;5078724;28;20860;-65
2022/01/16 11:26:19;;;;;;;51.63;30.02;;;;;;;;;;5070415;28;20036;-65
2022/01/16 11:28:45;;;;;;;50.72;29.73;;;;;;;;;;5069576;28;20063;-65
2022/01/16 11:31:18;;;;;;;47.67;27.98;;;;;;;;;;5062735;28;20043;-64
2022/01/16 11:33:44;;;;;;;47.42;28.92;;;;;;;;;;5071177;28;20028;-65
2022/01/16 11:36:13;;;;;;;53.63;31.90;;;;;;;;;;5047209;28;20032;-65
2022/01/16 11:38:47;;;;;;;50.92;29.00;;;;;;;;;;5069118;28;20045;-64
2022/01/16 11:41:24;;;;;;;49.30;30.80;;;;;;;;;;5067711;28;20110;-64
2022/01/16 11:43:55;;;;;;;46.85;27.13;;;;;;;;;;5059860;28;20041;-65
2022/01/16 11:46:20;;;;;;;43.80;26.30;;;;;;;;;;5061681;28;20453;-64
2022/01/16 11:49:02;;;;;;;40.58;25.13;;;;;;;;;;5057053;28;20052;-66
2022/01/16 11:51:40;;;;;;;42.75;22.60;;;;;;;;;;5062369;28;20496;-64
2022/01/16 11:54:10;;;;;;;41.58;23.35;;;;;;;;;;5073179;28;20036;-65
2022/01/16 11:56:39;;;;;;;31.77;20.63;;;;;;;;;;5073151;28;20068;-64
2022/01/16 11:59:27;;;;;;;28.38;18.08;;;;;;;;;;5049655;28;20063;-65
2022/01/16 12:01:55;;;;;;;30.52;17.58;;;;;;;;;;5074775;28;20096;-64
2022/01/16 12:04:30;;;;;;;30.80;16.70;;;;;;;;;;5052422;28;20039;-64
2022/01/16 12:06:56;;;;;;;21.63;15.27;;;;;;;;;;5079425;28;20044;-65
2022/01/16 12:12:31;;;;;;;26.55;13.15;;;;;;;;;;5048031;28;20116;-65
2022/01/16 12:15:18;;;;;;;22.90;14.93;;;;;;;;;;5083508;28;20036;-65
2022/01/16 12:17:51;;;;;;;23.92;14.05;;;;;;;;;;5054228;28;20094;-65
2022/01/16 12:20:21;;;;;;;21.77;13.70;;;;;;;;;;5055788;28;20040;-66
2022/01/16 12:22:55;;;;;;;20.17;13.43;;;;;;;;;;5073536;28;20432;-64
2022/01/16 12:25:39;;;;;;;20.55;13.35;;;;;;;;;;5062119;28;20032;-66
2022/01/16 12:28:08;;;;;;;19.48;13.68;;;;;;;;;;5076297;28;20068;-64
2022/01/16 12:30:48;;;;;;;18.80;13.40;;;;;;;;;;5069190;28;20040;-65
2022/01/16 12:33:16;;;;;;;19.30;12.95;;;;;;;;;;5050832;28;20037;-66
2022/01/16 12:35:45;;;;;;;23.88;13.70;;;;;;;;;;5067304;28;20041;-65
2022/01/16 12:38:12;;;;;;;23.40;14.52;;;;;;;;;;5070366;28;20083;-65
2022/01/16 12:40:39;;;;;;;25.25;15.10;;;;;;;;;;5070892;28;20119;-66
2022/01/16 12:43:09;;;;;;;23.55;14.45;;;;;;;;;;5074137;28;20044;-66
2022/01/16 12:45:39;;;;;;;26.15;16.13;;;;;;;;;;5056056;28;20072;-66
2022/01/16 12:48:08;;;;;;;21.80;14.73;;;;;;;;;;5074132;28;20036;-65
2022/01/16 12:50:35;;;;;;;19.48;13.60;;;;;;;;;;5056220;28;20097;-65
2022/01/16 12:53:01;;;;;;;27.27;15.52;;;;;;;;;;5080005;28;20400;-65
2022/01/16 12:55:28;;;;;;;19.23;12.95;;;;;;;;;;5073988;28;20452;-65
2022/01/16 12:58:14;;;;;;;24.08;14.38;;;;;;;;;;5056095;28;20169;-63
2022/01/16 13:00:59;;;;;;;30.20;19.95;;;;;;;;;;5072854;28;20056;-65
2022/01/16 13:03:26;;;;;;;32.13;17.48;;;;;;;;;;5073341;28;20083;-65
2022/01/16 13:06:12;;;;;;;23.33;14.75;;;;;;;;;;5056146;28;20044;-65
2022/01/16 13:08:57;;;;;;;21.35;13.70;;;;;;;;;;5073447;28;20049;-64
2022/01/16 13:11:24;;;;;;;22.98;14.07;;;;;;;;;;5072485;28;20501;-65
2022/01/16 13:13:53;;;;;;;40.03;22.80;;;;;;;;;;5055912;28;20084;-65
2022/01/16 13:16:36;;;;;;;31.52;18.73;;;;;;;;;;5072371;28;20041;-65
2022/01/16 13:19:22;;;;;;;28.20;18.67;;;;;;;;;;5055630;28;20033;-66
2022/01/16 13:22:04;;;;;;;21.67;14.52;;;;;;;;;;5073194;28;20083;-65
2022/01/16 13:24:33;;;;;;;29.30;18.15;;;;;;;;;;5072996;28;20542;-64
2022/01/16 13:27:00;;;;;;;22.00;14.52;;;;;;;;;;5073386;28;20044;-64
2022/01/16 13:29:26;;;;;;;21.88;14.50;;;;;;;;;;5073101;28;20051;-64
2022/01/16 13:31:52;;;;;;;28.85;18.60;;;;;;;;;;5053601;28;20045;-64
2022/01/16 13:34:44;;;;;;;26.42;16.80;;;;;;;;;;5072850;28;20036;-64
2022/01/16 13:37:17;;;;;;;31.45;17.95;;;;;;;;;;5045827;28;20059;-64
2022/01/16 13:39:48;;;;;;;19.85;13.32;;;;;;;;;;5073184;28;20127;-65
2022/01/16 13:42:14;;;;;;;20.42;13.93;;;;;;;;;;5054487;28;20044;-64
2022/01/16 13:44:40;;;;;;;23.20;14.38;;;;;;;;;;5055117;28;20501;-65
2022/01/16 13:47:09;;;;;;;20.27;13.13;;;;;;;;;;5055012;28;20102;-64
2022/01/16 13:49:44;;;;;;;21.60;14.38;;;;;;;;;;5072283;28;20052;-66
2022/01/16 13:52:11;;;;;;;20.45;13.32;;;;;;;;;;5072129;28;20075;-65
2022/01/16 13:54:37;;;;;;;22.60;15.02;;;;;;;;;;5055100;28;20076;-65
2022/01/16 13:57:03;;;;;;;20.77;14.02;;;;;;;;;;5097683;22;20024;-83
2022/01/16 13:59:30;;;;;;;22.98;17.25;;;;;;;;;;5089061;28;20558;-83
2022/01/16 14:01:57;;;;;;;23.42;14.40;;;;;;;;;;5106195;28;20099;-83
2022/01/16 14:04:24;;;;;;;21.98;15.48;;;;;;;;;;5090448;28;20031;-83
2022/01/16 14:06:52;;;;;;;23.05;16.75;;;;;;;;;;5106133;28;20478;-83
2022/01/16 14:09:21;;;;;;;29.33;19.48;;;;;;;;;;5124113;28;20487;-84
2022/01/16 14:11:49;;;;;;;24.33;15.55;;;;;;;;;;5089062;28;20042;-83
2022/01/16 14:14:16;;;;;;;28.13;16.80;;;;;;;;;;5089134;28;20046;-84
2022/01/16 14:19:12;;;;;;;27.05;17.92;;;;;;;;;;5105684;28;20524;-84
2022/01/16 14:24:34;;;;;;;25.60;16.50;;;;;;;;;;5112485;28;20039;-83
2022/01/16 14:27:14;;;;;;;28.02;18.65;;;;;;;;;;5108788;28;20525;-84
2022/01/16 14:29:42;;;;;;;26.75;18.17;;;;;;;;;;5104418;28;20039;-84
2022/01/16 14:32:10;;;;;;;26.83;17.60;;;;;;;;;;5103654;28;20421;-84
2022/01/16 14:34:36;;;;;;;31.05;19.20;;;;;;;;;;5087482;28;20038;-84
2022/01/16 14:37:03;;;;;;;29.73;19.10;;;;;;;;;;5088013;28;20047;-84
2022/01/16 14:39:29;;;;;;;31.60;19.85;;;;;;;;;;5104311;28;20050;-84
2022/01/16 14:41:56;;;;;;;30.15;18.70;;;;;;;;;;5087592;28;20098;-84
2022/01/16 14:44:32;;;;;;;28.10;19.20;;;;;;;;;;5105661;28;20043;-84
2022/01/16 14:47:00;;;;;;;36.75;20.20;;;;;;;;;;5104639;28;20035;-84
2022/01/16 14:49:26;;;;;;;35.03;20.35;;;;;;;;;;5088028;28;20043;-84
2022/01/16 14:51:53;;;;;;;35.78;19.33;;;;;;;;;;5104117;28;20043;-84
2022/01/16 14:54:20;;;;;;;34.88;21.33;;;;;;;;;;5087445;28;20039;-84
2022/01/16 14:56:46;;;;;;;38.53;22.00;;;;;;;;;;5087515;28;20035;-84
2022/01/16 14:59:13;;;;;;;35.65;20.42;;;;;;;;;;5123223;28;20043;-84
2022/01/16 15:01:39;;;;;;;39.20;21.48;;;;;;;;;;5086281;28;20115;-84
2022/01/16 15:04:06;;;;;;;38.63;22.38;;;;;;;;;;5104262;28;20047;-84
2022/01/16 15:06:32;;;;;;;39.28;20.83;;;;;;;;;;5104548;28;20036;-84